sensor_id;sensor_type;location;lat;lon;timestamp;pressure;altitude;pressure_sealevel;temperature;humidity
75006;BME280;63553;51.814;4.600;2024-03-08T00:02:22;101987.13;;;3.68;86.14
75006;BME280;63553;51.814;4.600;2024-03-08T00:04:48;101984.44;;;3.57;86.55
75006;BME280;63553;51.814;4.600;2024-03-08T00:07:13;101982.78;;;3.56;86.16
75006;BME280;63553;51.814;4.600;2024-03-08T00:09:39;101979.50;;;3.42;86.51
75006;BME280;63553;51.814;4.600;2024-03-08T00:12:04;101979.13;;;3.50;86.38
75006;BME280;63553;51.814;4.600;2024-03-08T00:14:30;101958.84;;;3.40;86.38
75006;BME280;63553;51.814;4.600;2024-03-08T00:16:55;101972.09;;;3.43;86.17
75006;BME280;63553;51.814;4.600;2024-03-08T00:19:20;101958.25;;;3.38;86.29
75006;BME280;63553;51.814;4.600;2024-03-08T00:21:45;101963.34;;;3.46;86.02
75006;BME280;63553;51.814;4.600;2024-03-08T00:24:11;101960.38;;;3.47;86.12
75006;BME280;63553;51.814;4.600;2024-03-08T00:26:37;101953.91;;;3.42;86.05
75006;BME280;63553;51.814;4.600;2024-03-08T00:29:02;101957.06;;;3.33;86.08
75006;BME280;63553;51.814;4.600;2024-03-08T00:31:28;101954.19;;;3.40;85.88
75006;BME280;63553;51.814;4.600;2024-03-08T00:33:56;101954.97;;;3.24;85.80
75006;BME280;63553;51.814;4.600;2024-03-08T00:36:22;101950.09;;;3.26;86.12
75006;BME280;63553;51.814;4.600;2024-03-08T00:38:47;101948.91;;;3.22;86.19
75006;BME280;63553;51.814;4.600;2024-03-08T00:41:13;101948.91;;;3.22;86.61
75006;BME280;63553;51.814;4.600;2024-03-08T00:43:38;101954.97;;;3.24;85.94
75006;BME280;63553;51.814;4.600;2024-03-08T00:46:04;101951.72;;;3.27;85.88
75006;BME280;63553;51.814;4.600;2024-03-08T00:48:29;101953.47;;;3.16;85.78
75006;BME280;63553;51.814;4.600;2024-03-08T00:50:56;101953.91;;;3.25;85.59
75006;BME280;63553;51.814;4.600;2024-03-08T00:53:21;101950.94;;;3.15;86.14
75006;BME280;63553;51.814;4.600;2024-03-08T00:55:46;101945.84;;;3.07;85.89
75006;BME280;63553;51.814;4.600;2024-03-08T00:58:12;101937.31;;;3.20;85.20
75006;BME280;63553;51.814;4.600;2024-03-08T01:00:38;101931.41;;;3.11;85.39
75006;BME280;63553;51.814;4.600;2024-03-08T01:03:06;101935.13;;;3.05;85.78
75006;BME280;63553;51.814;4.600;2024-03-08T01:05:32;101925.69;;;3.01;85.36
75006;BME280;63553;51.814;4.600;2024-03-08T01:07:58;101930.06;;;3.14;85.53
75006;BME280;63553;51.814;4.600;2024-03-08T01:10:23;101929.25;;;3.30;84.74
75006;BME280;63553;51.814;4.600;2024-03-08T01:12:48;101931.13;;;3.13;84.84
75006;BME280;63553;51.814;4.600;2024-03-08T01:15:15;101923.38;;;3.10;84.57
75006;BME280;63553;51.814;4.600;2024-03-08T01:17:40;101923.22;;;3.00;85.31
75006;BME280;63553;51.814;4.600;2024-03-08T01:20:07;101912.06;;;3.06;85.26
75006;BME280;63553;51.814;4.600;2024-03-08T01:22:32;101910.06;;;3.02;85.10
75006;BME280;63553;51.814;4.600;2024-03-08T01:24:58;101905.91;;;2.99;85.30
75006;BME280;63553;51.814;4.600;2024-03-08T01:27:23;101898.88;;;2.92;85.08
75006;BME280;63553;51.814;4.600;2024-03-08T01:29:50;101900.88;;;2.96;84.65
75006;BME280;63553;51.814;4.600;2024-03-08T01:32:15;101895.75;;;3.00;85.13
75006;BME280;63553;51.814;4.600;2024-03-08T01:34:41;101899.97;;;2.91;85.17
75006;BME280;63553;51.814;4.600;2024-03-08T01:37:07;101887.16;;;2.96;84.59
75006;BME280;63553;51.814;4.600;2024-03-08T01:39:33;101883.06;;;2.99;84.07
75006;BME280;63553;51.814;4.600;2024-03-08T01:41:58;101879.63;;;2.92;84.50
75006;BME280;63553;51.814;4.600;2024-03-08T01:44:24;101878.00;;;2.91;84.32
75006;BME280;63553;51.814;4.600;2024-03-08T01:46:50;101874.81;;;2.82;84.38
75006;BME280;63553;51.814;4.600;2024-03-08T01:49:18;101886.22;;;2.91;84.09
75006;BME280;63553;51.814;4.600;2024-03-08T01:51:46;101874.75;;;2.94;83.63
75006;BME280;63553;51.814;4.600;2024-03-08T01:54:12;101866.25;;;2.95;84.15
75006;BME280;63553;51.814;4.600;2024-03-08T01:56:39;101865.84;;;3.03;83.50
75006;BME280;63553;51.814;4.600;2024-03-08T01:59:05;101863.56;;;2.84;83.77
75006;BME280;63553;51.814;4.600;2024-03-08T02:01:33;101859.84;;;3.06;83.00
75006;BME280;63553;51.814;4.600;2024-03-08T02:03:58;101861.94;;;2.99;83.11
75006;BME280;63553;51.814;4.600;2024-03-08T02:06:24;101856.59;;;2.93;82.72
75006;BME280;63553;51.814;4.600;2024-03-08T02:08:49;101859.03;;;3.06;82.84
75006;BME280;63553;51.814;4.600;2024-03-08T02:11:14;101845.19;;;3.01;82.65
75006;BME280;63553;51.814;4.600;2024-03-08T02:13:41;101844.69;;;2.87;82.69
75006;BME280;63553;51.814;4.600;2024-03-08T02:16:06;101839.19;;;2.87;82.98
75006;BME280;63553;51.814;4.600;2024-03-08T02:18:33;101833.09;;;2.85;83.30
75006;BME280;63553;51.814;4.600;2024-03-08T02:21:00;101829.25;;;2.69;83.57
75006;BME280;63553;51.814;4.600;2024-03-08T02:23:28;101821.94;;;2.75;83.42
75006;BME280;63553;51.814;4.600;2024-03-08T02:25:54;101818.66;;;2.61;83.17
75006;BME280;63553;51.814;4.600;2024-03-08T02:28:20;101814.59;;;2.64;83.53
75006;BME280;63553;51.814;4.600;2024-03-08T02:30:46;101819.50;;;2.62;83.33
75006;BME280;63553;51.814;4.600;2024-03-08T02:33:16;101812.09;;;2.62;83.23
75006;BME280;63553;51.814;4.600;2024-03-08T02:35:45;101817.78;;;2.72;83.07
75006;BME280;63553;51.814;4.600;2024-03-08T02:38:14;101807.84;;;2.55;83.15
75006;BME280;63553;51.814;4.600;2024-03-08T02:40:42;101807.34;;;2.58;83.01
75006;BME280;63553;51.814;4.600;2024-03-08T02:43:08;101800.09;;;2.52;83.06
75006;BME280;63553;51.814;4.600;2024-03-08T02:45:33;101801.16;;;2.51;83.29
75006;BME280;63553;51.814;4.600;2024-03-08T02:48:00;101793.78;;;2.51;83.26
75006;BME280;63553;51.814;4.600;2024-03-08T02:50:25;101797.94;;;2.54;83.65
75006;BME280;63553;51.814;4.600;2024-03-08T02:52:51;101792.63;;;2.64;83.02
75006;BME280;63553;51.814;4.600;2024-03-08T02:55:16;101798.00;;;2.59;83.32
75006;BME280;63553;51.814;4.600;2024-03-08T02:57:42;101781.94;;;2.51;83.40
75006;BME280;63553;51.814;4.600;2024-03-08T03:00:09;101780.53;;;2.48;83.27
75006;BME280;63553;51.814;4.600;2024-03-08T03:02:34;101780.69;;;2.42;83.87
75006;BME280;63553;51.814;4.600;2024-03-08T03:05:00;101779.97;;;2.46;83.11
75006;BME280;63553;51.814;4.600;2024-03-08T03:07:30;101774.91;;;2.55;82.96
75006;BME280;63553;51.814;4.600;2024-03-08T03:09:56;101758.22;;;2.45;83.29
75006;BME280;63553;51.814;4.600;2024-03-08T03:12:21;101770.75;;;2.52;82.81
75006;BME280;63553;51.814;4.600;2024-03-08T03:14:46;101763.72;;;2.45;82.65
75006;BME280;63553;51.814;4.600;2024-03-08T03:17:12;101760.97;;;2.45;83.24
75006;BME280;63553;51.814;4.600;2024-03-08T03:19:40;101762.78;;;2.39;82.99
75006;BME280;63553;51.814;4.600;2024-03-08T03:22:05;101761.81;;;2.45;82.51
75006;BME280;63553;51.814;4.600;2024-03-08T03:24:32;101760.97;;;2.45;82.24
75006;BME280;63553;51.814;4.600;2024-03-08T03:26:58;101753.66;;;2.50;82.62
75006;BME280;63553;51.814;4.600;2024-03-08T03:29:24;101757.53;;;2.38;82.76
75006;BME280;63553;51.814;4.600;2024-03-08T03:31:50;101753.78;;;2.55;82.61
75006;BME280;63553;51.814;4.600;2024-03-08T03:34:16;101746.25;;;2.34;82.81
75006;BME280;63553;51.814;4.600;2024-03-08T03:36:41;101752.31;;;2.36;82.47
75006;BME280;63553;51.814;4.600;2024-03-08T03:39:10;101749.56;;;2.36;82.53
75006;BME280;63553;51.814;4.600;2024-03-08T03:41:38;101740.34;;;2.14;83.06
75006;BME280;63553;51.814;4.600;2024-03-08T03:44:04;101744.22;;;2.30;82.90
75006;BME280;63553;51.814;4.600;2024-03-08T03:46:30;101742.31;;;2.30;82.69
75006;BME280;63553;51.814;4.600;2024-03-08T03:48:56;101739.00;;;2.28;83.01
75006;BME280;63553;51.814;4.600;2024-03-08T03:51:21;101749.38;;;2.26;82.82
75006;BME280;63553;51.814;4.600;2024-03-08T03:53:47;101748.22;;;2.22;82.68
75006;BME280;63553;51.814;4.600;2024-03-08T03:56:12;101729.50;;;2.19;82.97
75006;BME280;63553;51.814;4.600;2024-03-08T03:58:37;101730.47;;;2.13;82.93
75006;BME280;63553;51.814;4.600;2024-03-08T04:01:06;101733.09;;;2.08;83.00
75006;BME280;63553;51.814;4.600;2024-03-08T04:03:31;101727.31;;;2.21;82.37
75006;BME280;63553;51.814;4.600;2024-03-08T04:05:57;101724.22;;;2.17;83.18
75006;BME280;63553;51.814;4.600;2024-03-08T04:08:22;101725.06;;;2.18;82.69
75006;BME280;63553;51.814;4.600;2024-03-08T04:10:49;101717.69;;;2.18;82.09
75006;BME280;63553;51.814;4.600;2024-03-08T04:13:14;101719.59;;;2.18;82.25
75006;BME280;63553;51.814;4.600;2024-03-08T04:15:41;101718.41;;;2.14;82.52
75006;BME280;63553;51.814;4.600;2024-03-08T04:18:09;101709.59;;;2.12;82.75
75006;BME280;63553;51.814;4.600;2024-03-08T04:20:34;101704.31;;;2.22;82.79
75006;BME280;63553;51.814;4.600;2024-03-08T04:23:00;101706.13;;;2.16;82.16
75006;BME280;63553;51.814;4.600;2024-03-08T04:25:25;101716.16;;;2.11;82.08
75006;BME280;63553;51.814;4.600;2024-03-08T04:27:50;101710.72;;;1.99;82.29
75006;BME280;63553;51.814;4.600;2024-03-08T04:30:18;101705.09;;;2.06;82.62
75006;BME280;63553;51.814;4.600;2024-03-08T04:32:43;101708.09;;;2.04;82.57
75006;BME280;63553;51.814;4.600;2024-03-08T04:35:09;101706.75;;;2.07;82.23
75006;BME280;63553;51.814;4.600;2024-03-08T04:37:34;101702.72;;;2.26;81.46
75006;BME280;63553;51.814;4.600;2024-03-08T04:39:59;101703.28;;;2.11;81.84
75006;BME280;63553;51.814;4.600;2024-03-08T04:42:26;101705.66;;;2.08;81.30
75006;BME280;63553;51.814;4.600;2024-03-08T04:44:52;101703.06;;;2.30;80.95
75006;BME280;63553;51.814;4.600;2024-03-08T04:47:18;101697.22;;;2.26;80.76
75006;BME280;63553;51.814;4.600;2024-03-08T04:49:44;101686.47;;;2.53;80.08
75006;BME280;63553;51.814;4.600;2024-03-08T04:52:09;101691.69;;;2.38;79.83
75006;BME280;63553;51.814;4.600;2024-03-08T04:54:35;101692.09;;;2.30;80.12
75006;BME280;63553;51.814;4.600;2024-03-08T04:57:00;101682.03;;;2.35;80.38
75006;BME280;63553;51.814;4.600;2024-03-08T04:59:28;101687.72;;;2.17;79.85
75006;BME280;63553;51.814;4.600;2024-03-08T05:01:54;101696.66;;;2.24;80.31
75006;BME280;63553;51.814;4.600;2024-03-08T05:04:20;101688.38;;;2.36;79.33
75006;BME280;63553;51.814;4.600;2024-03-08T05:06:45;101677.72;;;2.39;78.93
75006;BME280;63553;51.814;4.600;2024-03-08T05:09:11;101678.22;;;2.36;79.03
75006;BME280;63553;51.814;4.600;2024-03-08T05:11:40;101674.56;;;2.31;79.23
75006;BME280;63553;51.814;4.600;2024-03-08T05:14:05;101671.25;;;2.29;79.04
75006;BME280;63553;51.814;4.600;2024-03-08T05:16:31;101675.06;;;2.28;79.33
75006;BME280;63553;51.814;4.600;2024-03-08T05:18:56;101669.06;;;2.31;78.62
75006;BME280;63553;51.814;4.600;2024-03-08T05:21:22;101673.16;;;2.28;79.01
75006;BME280;63553;51.814;4.600;2024-03-08T05:23:48;101674.22;;;2.27;79.45
75006;BME280;63553;51.814;4.600;2024-03-08T05:26:15;101661.25;;;2.22;79.35
75006;BME280;63553;51.814;4.600;2024-03-08T05:28:40;101663.38;;;2.20;79.35
75006;BME280;63553;51.814;4.600;2024-03-08T05:31:06;101660.50;;;2.27;79.22
75006;BME280;63553;51.814;4.600;2024-03-08T05:33:32;101661.19;;;2.06;79.70
75006;BME280;63553;51.814;4.600;2024-03-08T05:35:59;101661.47;;;2.21;79.08
75006;BME280;63553;51.814;4.600;2024-03-08T05:38:25;101668.16;;;2.25;78.80
75006;BME280;63553;51.814;4.600;2024-03-08T05:40:51;101662.66;;;2.25;78.43
75006;BME280;63553;51.814;4.600;2024-03-08T05:43:16;101657.31;;;2.18;78.84
75006;BME280;63553;51.814;4.600;2024-03-08T05:45:45;101662.63;;;2.08;78.63
75006;BME280;63553;51.814;4.600;2024-03-08T05:48:10;101660.41;;;2.22;78.50
75006;BME280;63553;51.814;4.600;2024-03-08T05:50:37;101656.41;;;2.13;78.81
75006;BME280;63553;51.814;4.600;2024-03-08T05:53:03;101654.25;;;2.15;79.06
75006;BME280;63553;51.814;4.600;2024-03-08T05:55:32;101650.50;;;2.21;78.47
75006;BME280;63553;51.814;4.600;2024-03-08T05:58:03;101652.53;;;2.26;78.35
75006;BME280;63553;51.814;4.600;2024-03-08T06:00:28;101650.50;;;2.21;77.79
75006;BME280;63553;51.814;4.600;2024-03-08T06:02:53;101647.97;;;2.03;78.76
75006;BME280;63553;51.814;4.600;2024-03-08T06:05:19;101642.53;;;2.19;78.40
75006;BME280;63553;51.814;4.600;2024-03-08T06:07:44;101637.22;;;2.13;78.28
75006;BME280;63553;51.814;4.600;2024-03-08T06:10:10;101643.75;;;2.12;78.38
75006;BME280;63553;51.814;4.600;2024-03-08T06:12:37;101638.78;;;2.09;78.31
75006;BME280;63553;51.814;4.600;2024-03-08T06:15:09;101629.06;;;2.18;77.65
75006;BME280;63553;51.814;4.600;2024-03-08T06:17:36;101642.84;;;2.23;78.09
75006;BME280;63553;51.814;4.600;2024-03-08T06:20:02;101630.59;;;2.26;77.21
75006;BME280;63553;51.814;4.600;2024-03-08T06:22:28;101635.13;;;2.20;77.45
75006;BME280;63553;51.814;4.600;2024-03-08T06:24:55;101633.91;;;2.28;77.15
75006;BME280;63553;51.814;4.600;2024-03-08T06:27:20;101627.84;;;2.26;77.42
75006;BME280;63553;51.814;4.600;2024-03-08T06:29:46;101632.06;;;2.16;77.97
75006;BME280;63553;51.814;4.600;2024-03-08T06:32:14;101627.38;;;2.17;78.11
75006;BME280;63553;51.814;4.600;2024-03-08T06:34:40;101615.25;;;2.13;78.30
75006;BME280;63553;51.814;4.600;2024-03-08T06:37:06;101615.91;;;2.20;77.94
75006;BME280;63553;51.814;4.600;2024-03-08T06:39:31;101607.69;;;2.20;78.59
75006;BME280;63553;51.814;4.600;2024-03-08T06:41:57;101607.94;;;2.18;78.48
75006;BME280;63553;51.814;4.600;2024-03-08T06:44:23;101612.47;;;2.58;79.51
75006;BME280;63553;51.814;4.600;2024-03-08T06:46:48;101598.28;;;3.96;84.07
75006;BME280;63553;51.814;4.600;2024-03-08T06:49:14;101607.66;;;5.00;83.20
75006;BME280;63553;51.814;4.600;2024-03-08T06:51:40;101597.53;;;5.78;81.68
75006;BME280;63553;51.814;4.600;2024-03-08T06:54:06;101602.34;;;6.48;79.25
75006;BME280;63553;51.814;4.600;2024-03-08T06:56:34;101593.69;;;7.05;77.37
75006;BME280;63553;51.814;4.600;2024-03-08T06:58:59;101595.72;;;7.59;76.16
75006;BME280;63553;51.814;4.600;2024-03-08T07:01:25;101590.16;;;8.13;74.48
75006;BME280;63553;51.814;4.600;2024-03-08T07:03:50;101590.59;;;8.64;73.57
75006;BME280;63553;51.814;4.600;2024-03-08T07:06:18;101589.44;;;9.22;70.63
75006;BME280;63553;51.814;4.600;2024-03-08T07:08:44;101598.84;;;9.69;69.13
75006;BME280;63553;51.814;4.600;2024-03-08T07:11:11;101588.22;;;10.13;67.51
75006;BME280;63553;51.814;4.600;2024-03-08T07:13:37;101589.56;;;10.53;65.52
75006;BME280;63553;51.814;4.600;2024-03-08T07:16:04;101584.09;;;10.94;63.19
75006;BME280;63553;51.814;4.600;2024-03-08T07:18:30;101587.09;;;11.38;62.26
75006;BME280;63553;51.814;4.600;2024-03-08T07:20:56;101583.41;;;11.84;60.58
75006;BME280;63553;51.814;4.600;2024-03-08T07:23:22;101576.19;;;12.41;58.44
75006;BME280;63553;51.814;4.600;2024-03-08T07:26:06;101580.78;;;13.12;57.25
75006;BME280;63553;51.814;4.600;2024-03-08T07:28:31;101569.47;;;13.73;55.64
75006;BME280;63553;51.814;4.600;2024-03-08T07:31:00;101574.31;;;14.33;53.78
75006;BME280;63553;51.814;4.600;2024-03-08T07:33:46;101573.53;;;15.05;51.96
75006;BME280;63553;51.814;4.600;2024-03-08T07:36:11;101556.88;;;15.54;50.44
75006;BME280;63553;51.814;4.600;2024-03-08T07:38:37;101569.22;;;16.03;49.10
75006;BME280;63553;51.814;4.600;2024-03-08T07:41:02;101558.88;;;16.37;47.91
75006;BME280;63553;51.814;4.600;2024-03-08T07:43:28;101560.59;;;16.71;47.40
75006;BME280;63553;51.814;4.600;2024-03-08T07:45:53;101553.06;;;17.07;46.70
75006;BME280;63553;51.814;4.600;2024-03-08T07:48:20;101548.31;;;17.56;45.71
75006;BME280;63553;51.814;4.600;2024-03-08T07:50:46;101555.44;;;18.02;43.96
75006;BME280;63553;51.814;4.600;2024-03-08T07:53:11;101552.13;;;18.40;42.36
75006;BME280;63553;51.814;4.600;2024-03-08T07:55:37;101547.44;;;18.72;42.71
75006;BME280;63553;51.814;4.600;2024-03-08T07:58:03;101543.69;;;19.11;41.74
75006;BME280;63553;51.814;4.600;2024-03-08T08:00:29;101552.97;;;19.59;40.85
75006;BME280;63553;51.814;4.600;2024-03-08T08:02:55;101537.59;;;19.91;39.78
75006;BME280;63553;51.814;4.600;2024-03-08T08:05:21;101527.94;;;20.27;39.28
75006;BME280;63553;51.814;4.600;2024-03-08T08:07:46;101529.56;;;20.66;38.45
75006;BME280;63553;51.814;4.600;2024-03-08T08:10:15;101521.34;;;21.03;38.10
75006;BME280;63553;51.814;4.600;2024-03-08T08:12:47;101526.47;;;21.39;36.39
75006;BME280;63553;51.814;4.600;2024-03-08T08:15:12;101524.84;;;21.65;36.25
75006;BME280;63553;51.814;4.600;2024-03-08T08:17:38;101519.47;;;21.82;36.17
75006;BME280;63553;51.814;4.600;2024-03-08T08:20:04;101513.34;;;22.06;35.23
75006;BME280;63553;51.814;4.600;2024-03-08T08:22:31;101500.22;;;22.25;34.83
75006;BME280;63553;51.814;4.600;2024-03-08T08:24:56;101504.91;;;22.43;34.32
75006;BME280;63553;51.814;4.600;2024-03-08T08:27:21;101498.78;;;22.71;34.12
75006;BME280;63553;51.814;4.600;2024-03-08T08:29:47;101493.03;;;23.04;33.68
75006;BME280;63553;51.814;4.600;2024-03-08T08:32:13;101493.25;;;23.29;32.62
75006;BME280;63553;51.814;4.600;2024-03-08T08:34:38;101491.03;;;23.52;32.52
75006;BME280;63553;51.814;4.600;2024-03-08T08:37:03;101490.38;;;23.76;31.94
75006;BME280;63553;51.814;4.600;2024-03-08T08:39:29;101483.63;;;23.99;31.98
75006;BME280;63553;51.814;4.600;2024-03-08T08:41:54;101472.00;;;24.28;31.74
75006;BME280;63553;51.814;4.600;2024-03-08T08:44:19;101472.50;;;24.55;30.85
75006;BME280;63553;51.814;4.600;2024-03-08T08:46:45;101470.91;;;24.75;30.58
75006;BME280;63553;51.814;4.600;2024-03-08T08:49:10;101464.47;;;25.00;30.81
75006;BME280;63553;51.814;4.600;2024-03-08T08:51:39;101464.88;;;25.23;29.83
75006;BME280;63553;51.814;4.600;2024-03-08T08:54:05;101475.03;;;25.13;29.18
75006;BME280;63553;51.814;4.600;2024-03-08T08:56:31;101468.13;;;25.25;29.44
75006;BME280;63553;51.814;4.600;2024-03-08T08:58:57;101466.50;;;25.38;29.46
75006;BME280;63553;51.814;4.600;2024-03-08T09:01:23;101458.72;;;25.60;28.88
75006;BME280;63553;51.814;4.600;2024-03-08T09:03:48;101466.88;;;25.68;28.07
75006;BME280;63553;51.814;4.600;2024-03-08T09:06:15;101462.78;;;25.80;28.59
75006;BME280;63553;51.814;4.600;2024-03-08T09:08:41;101459.50;;;25.92;28.03
75006;BME280;63553;51.814;4.600;2024-03-08T09:11:07;101450.88;;;26.10;28.03
75006;BME280;63553;51.814;4.600;2024-03-08T09:13:32;101439.03;;;26.22;27.59
75006;BME280;63553;51.814;4.600;2024-03-08T09:16:02;101438.97;;;26.32;27.07
75006;BME280;63553;51.814;4.600;2024-03-08T09:18:28;101427.50;;;26.43;27.06
75006;BME280;63553;51.814;4.600;2024-03-08T09:20:54;101429.00;;;26.62;27.15
75006;BME280;63553;51.814;4.600;2024-03-08T09:23:19;101430.16;;;26.71;27.00
75006;BME280;63553;51.814;4.600;2024-03-08T09:25:45;101421.66;;;26.64;26.57
75006;BME280;63553;51.814;4.600;2024-03-08T09:28:12;101421.59;;;26.75;26.42
75006;BME280;63553;51.814;4.600;2024-03-08T09:30:38;101412.59;;;26.83;25.98
75006;BME280;63553;51.814;4.600;2024-03-08T09:33:04;101401.56;;;26.85;26.66
75006;BME280;63553;51.814;4.600;2024-03-08T09:35:29;101395.25;;;27.08;26.39
75006;BME280;63553;51.814;4.600;2024-03-08T09:37:55;101403.69;;;27.22;26.38
75006;BME280;63553;51.814;4.600;2024-03-08T09:40:21;101396.25;;;27.32;25.70
75006;BME280;63553;51.814;4.600;2024-03-08T09:42:49;101387.19;;;27.40;25.82
75006;BME280;63553;51.814;4.600;2024-03-08T09:45:14;101369.69;;;27.35;25.33
75006;BME280;63553;51.814;4.600;2024-03-08T09:47:41;101371.97;;;27.50;25.71
75006;BME280;63553;51.814;4.600;2024-03-08T09:50:08;101364.69;;;27.46;25.49
75006;BME280;63553;51.814;4.600;2024-03-08T09:52:37;101362.25;;;27.41;25.80
75006;BME280;63553;51.814;4.600;2024-03-08T09:55:05;101356.50;;;27.48;25.49
75006;BME280;63553;51.814;4.600;2024-03-08T09:57:35;101348.25;;;27.57;25.49
75006;BME280;63553;51.814;4.600;2024-03-08T10:00:01;101344.75;;;27.42;25.63
75006;BME280;63553;51.814;4.600;2024-03-08T10:02:26;101339.41;;;27.44;25.20
75006;BME280;63553;51.814;4.600;2024-03-08T10:04:54;101332.47;;;27.45;25.28
75006;BME280;63553;51.814;4.600;2024-03-08T10:07:23;101331.28;;;27.39;25.45
75006;BME280;63553;51.814;4.600;2024-03-08T10:09:51;101319.88;;;27.36;25.85
75006;BME280;63553;51.814;4.600;2024-03-08T10:12:17;101316.34;;;27.25;25.09
75006;BME280;63553;51.814;4.600;2024-03-08T10:14:42;101312.72;;;27.21;25.65
75006;BME280;63553;51.814;4.600;2024-03-08T10:17:08;101307.81;;;27.21;25.75
75006;BME280;63553;51.814;4.600;2024-03-08T10:19:34;101310.34;;;27.16;26.48
75006;BME280;63553;51.814;4.600;2024-03-08T10:21:59;101298.72;;;26.96;25.16
75006;BME280;63553;51.814;4.600;2024-03-08T10:24:25;101290.72;;;26.80;25.59
75006;BME280;63553;51.814;4.600;2024-03-08T10:26:58;101279.78;;;26.72;25.55
75006;BME280;63553;51.814;4.600;2024-03-08T10:29:26;101279.91;;;26.58;26.16
75006;BME280;63553;51.814;4.600;2024-03-08T10:31:51;101280.44;;;26.42;25.82
75006;BME280;63553;51.814;4.600;2024-03-08T10:34:17;101270.44;;;26.20;26.41
75006;BME280;63553;51.814;4.600;2024-03-08T10:36:42;101269.75;;;25.98;26.50
75006;BME280;63553;51.814;4.600;2024-03-08T10:39:21;101271.16;;;25.65;26.86
75006;BME280;63553;51.814;4.600;2024-03-08T10:41:52;101255.44;;;25.22;27.06
75006;BME280;63553;51.814;4.600;2024-03-08T10:47:03;101246.66;;;24.53;27.99
75006;BME280;63553;51.814;4.600;2024-03-08T10:49:32;101248.28;;;24.25;28.46
75006;BME280;63553;51.814;4.600;2024-03-08T10:52:03;101238.88;;;23.90;28.70
75006;BME280;63553;51.814;4.600;2024-03-08T10:54:29;101235.16;;;23.57;29.12
75006;BME280;63553;51.814;4.600;2024-03-08T10:56:57;101239.44;;;23.19;29.88
75006;BME280;63553;51.814;4.600;2024-03-08T10:59:23;101231.97;;;22.83;29.81
75006;BME280;63553;51.814;4.600;2024-03-08T11:01:50;101227.66;;;22.49;30.37
75006;BME280;63553;51.814;4.600;2024-03-08T11:04:16;101230.59;;;22.15;30.67
75006;BME280;63553;51.814;4.600;2024-03-08T11:06:46;101226.97;;;21.75;31.04
75006;BME280;63553;51.814;4.600;2024-03-08T11:15:15;101206.66;;;20.69;34.06
75006;BME280;63553;51.814;4.600;2024-03-08T11:17:50;101210.41;;;20.50;35.45
75006;BME280;63553;51.814;4.600;2024-03-08T11:20:18;101209.31;;;20.32;36.35
75006;BME280;63553;51.814;4.600;2024-03-08T11:23:16;101195.19;;;20.10;37.21
75006;BME280;63553;51.814;4.600;2024-03-08T11:25:50;101193.25;;;19.91;37.56
75006;BME280;63553;51.814;4.600;2024-03-08T11:28:19;101185.56;;;19.65;36.88
75006;BME280;63553;51.814;4.600;2024-03-08T11:30:45;101187.31;;;19.51;36.72
75006;BME280;63553;51.814;4.600;2024-03-08T11:33:13;101186.13;;;19.32;37.36
75006;BME280;63553;51.814;4.600;2024-03-08T11:35:41;101182.56;;;19.16;38.13
75006;BME280;63553;51.814;4.600;2024-03-08T11:38:08;101181.38;;;18.98;38.03
75006;BME280;63553;51.814;4.600;2024-03-08T11:40:35;101172.63;;;18.84;38.10
75006;BME280;63553;51.814;4.600;2024-03-08T11:43:01;101177.97;;;18.70;39.44
75006;BME280;63553;51.814;4.600;2024-03-08T11:45:29;101173.28;;;18.58;38.84
75006;BME280;63553;51.814;4.600;2024-03-08T11:47:55;101168.47;;;18.43;38.73
75006;BME280;63553;51.814;4.600;2024-03-08T11:50:20;101161.78;;;18.32;39.35
75006;BME280;63553;51.814;4.600;2024-03-08T11:52:49;101168.78;;;18.22;39.08
75006;BME280;63553;51.814;4.600;2024-03-08T11:55:14;101160.53;;;18.14;38.67
75006;BME280;63553;51.814;4.600;2024-03-08T11:57:40;101153.03;;;18.02;38.83
75006;BME280;63553;51.814;4.600;2024-03-08T12:00:15;101154.75;;;17.91;38.73
75006;BME280;63553;51.814;4.600;2024-03-08T12:02:46;101147.22;;;17.80;38.10
75006;BME280;63553;51.814;4.600;2024-03-08T12:05:15;101147.69;;;17.66;38.52
75006;BME280;63553;51.814;4.600;2024-03-08T12:07:41;101139.06;;;17.59;38.56
75006;BME280;63553;51.814;4.600;2024-03-08T12:10:21;101140.47;;;17.53;38.73
75006;BME280;63553;51.814;4.600;2024-03-08T12:12:54;101138.28;;;17.46;38.83
75006;BME280;63553;51.814;4.600;2024-03-08T12:15:22;101129.19;;;17.37;38.89
75006;BME280;63553;51.814;4.600;2024-03-08T12:17:50;101125.84;;;17.32;39.71
75006;BME280;63553;51.814;4.600;2024-03-08T12:20:18;101126.94;;;17.27;39.90
75006;BME280;63553;51.814;4.600;2024-03-08T12:22:44;101126.41;;;17.21;40.13
75006;BME280;63553;51.814;4.600;2024-03-08T12:25:13;101126.28;;;17.18;39.42
75006;BME280;63553;51.814;4.600;2024-03-08T12:27:39;101118.84;;;17.10;39.07
75006;BME280;63553;51.814;4.600;2024-03-08T12:30:25;101113.41;;;17.01;39.68
75006;BME280;63553;51.814;4.600;2024-03-08T12:32:58;101115.63;;;16.96;40.06
75006;BME280;63553;51.814;4.600;2024-03-08T12:35:25;101102.47;;;16.84;40.18
75006;BME280;63553;51.814;4.600;2024-03-08T12:37:55;101102.34;;;16.81;40.55
75006;BME280;63553;51.814;4.600;2024-03-08T12:40:32;101096.28;;;16.79;40.12
75006;BME280;63553;51.814;4.600;2024-03-08T12:43:00;101092.47;;;16.71;40.03
75006;BME280;63553;51.814;4.600;2024-03-08T12:45:26;101087.09;;;16.66;39.51
75006;BME280;63553;51.814;4.600;2024-03-08T12:47:53;101096.22;;;16.63;40.11
75006;BME280;63553;51.814;4.600;2024-03-08T12:50:20;101083.28;;;16.58;40.57
75006;BME280;63553;51.814;4.600;2024-03-08T12:52:45;101084.00;;;16.55;41.51
75006;BME280;63553;51.814;4.600;2024-03-08T12:55:11;101085.03;;;16.51;42.89
75006;BME280;63553;51.814;4.600;2024-03-08T12:57:38;101072.16;;;16.50;42.69
75006;BME280;63553;51.814;4.600;2024-03-08T13:00:04;101063.06;;;16.41;44.26
75006;BME280;63553;51.814;4.600;2024-03-08T13:02:30;101074.75;;;16.43;42.42